createdAt,value
2022-08-24T00:01:59.081Z,22.30
2022-08-24T00:04:28.358Z,22.30
2022-08-24T00:07:00.394Z,22.30
2022-08-24T00:09:28.655Z,22.30
2022-08-24T00:11:58.122Z,22.30
2022-08-24T00:14:26.733Z,22.30
2022-08-24T00:16:55.202Z,22.30
2022-08-24T00:19:23.410Z,22.20
2022-08-24T00:21:52.169Z,22.20
2022-08-24T00:24:20.581Z,22.20
2022-08-24T00:26:48.900Z,22.20
2022-08-24T00:29:20.097Z,22.20
2022-08-24T00:31:49.356Z,22.20
2022-08-24T00:34:18.149Z,22.20
2022-08-24T00:36:47.172Z,22.20
2022-08-24T00:39:15.305Z,22.20
2022-08-24T00:41:46.213Z,22.10
2022-08-24T00:44:15.600Z,22.10
2022-08-24T00:46:50.793Z,22.10
2022-08-24T00:49:25.001Z,22.10
2022-08-24T00:52:03.781Z,22.10
2022-08-24T00:54:34.741Z,22.00
2022-08-24T00:57:07.105Z,22.00
2022-08-24T00:59:42.395Z,22.00
2022-08-24T01:02:16.995Z,22.00
2022-08-24T01:04:50.222Z,22.00
2022-08-24T01:07:21.020Z,22.00
2022-08-24T01:09:49.180Z,22.00
2022-08-24T01:12:17.954Z,21.90
2022-08-24T01:14:46.267Z,21.90
2022-08-24T01:17:38.830Z,21.90
2022-08-24T01:20:09.748Z,21.90
2022-08-24T01:22:53.603Z,21.90
2022-08-24T01:25:25.489Z,21.80
2022-08-24T01:28:00.264Z,21.80
2022-08-24T01:30:36.657Z,21.80
2022-08-24T01:33:08.641Z,21.80
2022-08-24T01:35:38.757Z,21.70
2022-08-24T01:38:09.607Z,21.70
2022-08-24T01:40:43.084Z,21.70
2022-08-24T01:43:13.587Z,21.70
2022-08-24T01:45:41.677Z,21.70
2022-08-24T01:48:10.928Z,21.70
2022-08-24T01:50:39.113Z,21.60
2022-08-24T01:53:10.400Z,21.60
2022-08-24T01:55:41.072Z,21.60
2022-08-24T01:58:09.734Z,21.60
2022-08-24T02:00:38.601Z,21.60
2022-08-24T02:03:07.197Z,21.60
2022-08-24T02:05:36.480Z,21.50
2022-08-24T02:08:05.245Z,21.50
2022-08-24T02:10:33.569Z,21.50
2022-08-24T02:13:04.991Z,21.40
2022-08-24T02:15:36.315Z,21.40
2022-08-24T02:18:05.253Z,21.40
2022-08-24T02:20:33.701Z,21.40
2022-08-24T02:23:02.171Z,21.40
2022-08-24T02:25:31.015Z,21.40
2022-08-24T02:27:59.876Z,21.30
2022-08-24T02:30:31.269Z,21.30
2022-08-24T02:33:00.165Z,21.30
2022-08-24T02:35:30.453Z,21.30
2022-08-24T02:37:59.676Z,21.30
2022-08-24T02:40:29.732Z,21.20
2022-08-24T02:42:58.038Z,21.20
2022-08-24T02:45:26.394Z,21.20
2022-08-24T02:47:56.274Z,21.20
2022-08-24T02:50:26.396Z,21.10
2022-08-24T02:52:54.721Z,21.10
2022-08-24T02:55:25.165Z,21.10
2022-08-24T02:57:54.154Z,21.10
2022-08-24T03:00:23.501Z,21.00
2022-08-24T03:02:51.826Z,21.00
2022-08-24T03:05:22.433Z,21.00
2022-08-24T03:07:52.245Z,20.90
2022-08-24T03:10:21.760Z,20.90
2022-08-24T03:12:50.614Z,20.90
2022-08-24T03:15:22.450Z,20.80
2022-08-24T03:17:50.838Z,20.80
2022-08-24T03:20:23.518Z,20.80
2022-08-24T03:22:52.675Z,20.80
2022-08-24T03:25:24.549Z,20.80
2022-08-24T03:27:53.383Z,20.70
2022-08-24T03:30:23.502Z,20.70
2022-08-24T03:32:51.862Z,20.70
2022-08-24T03:35:21.933Z,20.70
2022-08-24T03:37:51.942Z,20.70
2022-08-24T03:40:24.810Z,20.70
2022-08-24T03:42:57.245Z,20.60
2022-08-24T03:45:25.491Z,20.60
2022-08-24T03:47:55.334Z,20.60
2022-08-24T03:50:25.169Z,20.60
2022-08-24T03:52:54.691Z,20.60
2022-08-24T03:55:23.001Z,20.50
2022-08-24T03:57:51.169Z,20.50
2022-08-24T04:00:19.565Z,20.50
2022-08-24T04:02:56.497Z,20.50
2022-08-24T04:05:27.810Z,20.40
2022-08-24T04:08:05.404Z,20.40
2022-08-24T04:10:35.681Z,20.40
2022-08-24T04:13:04.053Z,20.40
2022-08-24T04:15:32.957Z,20.40
2022-08-24T04:18:01.058Z,20.30
2022-08-24T04:20:29.172Z,20.30
2022-08-24T04:22:57.629Z,20.30
2022-08-24T04:25:27.425Z,20.30
2022-08-24T04:27:55.596Z,20.30
2022-08-24T04:30:24.656Z,20.20
2022-08-24T04:33:11.402Z,20.20
2022-08-24T04:35:42.169Z,20.20
2022-08-24T04:38:11.114Z,20.10
2022-08-24T04:40:46.956Z,20.10
2022-08-24T04:43:19.855Z,20.10
2022-08-24T04:45:50.498Z,20.10
2022-08-24T04:48:19.274Z,20.00
2022-08-24T04:50:47.481Z,20.00
2022-08-24T04:53:16.054Z,20.00
2022-08-24T04:55:51.150Z,20.00
2022-08-24T04:58:20.527Z,20.00
2022-08-24T05:00:49.013Z,19.90
2022-08-24T05:03:17.296Z,19.90
2022-08-24T05:05:49.507Z,19.90
2022-08-24T05:08:19.428Z,19.90
2022-08-24T05:10:50.540Z,19.90
2022-08-24T05:13:19.770Z,19.90
2022-08-24T05:15:49.403Z,19.90
2022-08-24T05:18:18.607Z,19.90
2022-08-24T05:20:48.387Z,20.00
2022-08-24T05:23:16.737Z,20.00
2022-08-24T05:25:46.023Z,20.00
2022-08-24T05:28:15.525Z,20.00
2022-08-24T05:30:43.713Z,20.10
2022-08-24T05:33:12.740Z,20.10
2022-08-24T05:35:44.301Z,20.10
2022-08-24T05:38:14.161Z,20.10
2022-08-24T05:40:43.426Z,20.10
2022-08-24T05:43:12.298Z,20.20
2022-08-24T05:45:44.325Z,20.20
2022-08-24T05:48:12.997Z,20.20
2022-08-24T05:51:00.456Z,20.20
2022-08-24T05:53:34.342Z,20.20
2022-08-24T05:56:04.901Z,20.20
2022-08-24T05:58:33.225Z,20.30
2022-08-24T06:01:09.153Z,20.30
2022-08-24T06:03:37.997Z,20.40
2022-08-24T06:06:10.018Z,20.40
2022-08-24T06:08:41.614Z,20.50
2022-08-24T06:11:12.656Z,20.50
2022-08-24T06:13:41.293Z,20.50
2022-08-24T06:16:22.386Z,20.60
2022-08-24T06:18:52.186Z,20.60
2022-08-24T06:21:24.529Z,20.60
2022-08-24T06:23:53.687Z,20.70
2022-08-24T06:26:39.878Z,20.70
2022-08-24T06:29:09.131Z,20.80
2022-08-24T06:31:49.246Z,21.10
2022-08-24T06:34:26.035Z,21.30
2022-08-24T06:36:54.906Z,21.50
2022-08-24T06:39:25.644Z,21.50
2022-08-24T06:41:55.973Z,21.70
2022-08-24T06:44:31.865Z,21.90
2022-08-24T06:47:19.428Z,22.10
2022-08-24T06:49:50.075Z,22.40
2022-08-24T06:52:18.299Z,22.60
2022-08-24T06:54:46.477Z,22.80
2022-08-24T06:57:14.778Z,22.90
2022-08-24T06:59:43.192Z,23.00
2022-08-24T07:02:15.679Z,23.10
2022-08-24T07:04:46.738Z,23.10
2022-08-24T07:07:33.619Z,23.30
2022-08-24T07:10:02.729Z,23.40
2022-08-24T07:12:30.953Z,23.70
2022-08-24T07:14:59.166Z,23.80
2022-08-24T07:17:28.287Z,24.00
2022-08-24T07:19:57.903Z,24.00
2022-08-24T07:22:49.293Z,24.10
2022-08-24T07:25:18.294Z,24.30
2022-08-24T07:27:49.239Z,24.50
2022-08-24T07:30:27.796Z,24.70
2022-08-24T07:32:58.800Z,24.70
2022-08-24T07:35:32.404Z,24.80
2022-08-24T07:38:02.215Z,25.00
2022-08-24T07:40:36.487Z,25.10
2022-08-24T07:43:17.961Z,25.30
2022-08-24T07:45:46.677Z,25.40
2022-08-24T07:48:14.942Z,25.50
2022-08-24T07:50:48.275Z,25.70
2022-08-24T07:53:20.832Z,25.80
2022-08-24T07:55:56.619Z,26.00
2022-08-24T07:58:26.290Z,26.10
2022-08-24T08:00:54.777Z,26.20
2022-08-24T08:03:24.980Z,26.30
2022-08-24T08:05:59.137Z,26.40
2022-08-24T08:08:28.061Z,26.50
2022-08-24T08:10:56.819Z,26.70
2022-08-24T08:13:25.390Z,26.70
2022-08-24T08:15:56.777Z,26.80
2022-08-24T08:18:28.812Z,26.90
2022-08-24T08:21:01.248Z,27.00
2022-08-24T08:23:46.707Z,27.10
2022-08-24T08:26:22.933Z,27.20
2022-08-24T08:29:06.735Z,27.30
2022-08-24T08:31:38.055Z,27.40
2022-08-24T08:34:07.625Z,27.50
2022-08-24T08:36:40.348Z,27.50
2022-08-24T08:39:11.239Z,27.50
2022-08-24T08:42:13.194Z,27.60
2022-08-24T08:45:01.077Z,27.70
2022-08-24T08:48:07.170Z,27.80
2022-08-24T08:50:54.765Z,27.80
2022-08-24T08:53:59.069Z,27.90
2022-08-24T08:56:36.233Z,28.00
2022-08-24T08:59:29.068Z,28.00
2022-08-24T09:02:07.417Z,28.10
2022-08-24T09:05:40.669Z,28.20
2022-08-24T09:08:20.599Z,28.20
2022-08-24T09:11:08.900Z,28.30
2022-08-24T09:13:58.929Z,28.40
2022-08-24T09:17:00.749Z,28.50
2022-08-24T09:19:47.745Z,28.60
2022-08-24T09:22:18.030Z,28.70
2022-08-24T09:25:06.315Z,28.70
2022-08-24T09:28:14.554Z,28.80
2022-08-24T09:31:21.922Z,28.80
2022-08-24T09:33:56.807Z,28.90
2022-08-24T09:36:34.425Z,28.90
2022-08-24T09:39:09.644Z,29.00
2022-08-24T09:42:03.298Z,29.00
2022-08-24T09:44:52.202Z,29.10
2022-08-24T09:47:52.052Z,29.10
2022-08-24T09:50:50.931Z,29.20
2022-08-24T09:53:47.777Z,29.20
2022-08-24T09:56:36.261Z,29.30
2022-08-24T09:59:21.595Z,29.40
2022-08-24T10:02:08.607Z,29.50
2022-08-24T10:04:44.146Z,29.50
2022-08-24T10:07:19.824Z,29.60
2022-08-24T10:10:10.761Z,29.70
2022-08-24T10:12:59.855Z,29.70
2022-08-24T10:15:32.269Z,29.80
2022-08-24T10:18:24.104Z,29.80
2022-08-24T10:21:21.487Z,29.80
2022-08-24T10:24:08.010Z,29.90
2022-08-24T10:26:46.950Z,30.00
2022-08-24T10:29:33.730Z,30.00
2022-08-24T10:32:15.327Z,30.10
2022-08-24T10:35:00.882Z,30.10
2022-08-24T10:38:14.950Z,30.10
2022-08-24T10:40:54.428Z,30.20
2022-08-24T10:43:51.369Z,30.20
2022-08-24T10:46:50.389Z,30.20
2022-08-24T10:49:53.869Z,30.30
2022-08-24T10:52:54.593Z,30.30
2022-08-24T10:55:27.914Z,30.40
2022-08-24T10:58:29.584Z,30.40
2022-08-24T11:01:13.612Z,30.50
2022-08-24T11:03:51.480Z,30.50
2022-08-24T11:06:20.823Z,30.50
2022-08-24T11:09:00.524Z,30.50
2022-08-24T11:11:33.760Z,30.50
2022-08-24T11:14:04.720Z,30.50
2022-08-24T11:16:39.848Z,30.50
2022-08-24T11:19:11.398Z,30.50
2022-08-24T11:21:44.243Z,30.60
2022-08-24T11:24:26.395Z,30.60
2022-08-24T11:26:58.761Z,30.60
2022-08-24T11:30:03.520Z,30.60
2022-08-24T11:32:38.602Z,30.60
2022-08-24T11:35:17.010Z,30.70
2022-08-24T11:37:46.214Z,30.70
2022-08-24T11:40:17.177Z,30.70
2022-08-24T11:43:26.767Z,30.80
2022-08-24T11:46:08.428Z,30.80
2022-08-24T11:48:48.831Z,30.90
2022-08-24T11:51:30.487Z,30.90
2022-08-24T11:54:06.089Z,30.90
2022-08-24T11:56:42.299Z,30.90
2022-08-24T11:59:18.726Z,30.90
2022-08-24T12:01:54.687Z,30.90
2022-08-24T12:04:42.693Z,30.90
2022-08-24T12:07:20.607Z,31.00
2022-08-24T12:10:11.802Z,31.00
2022-08-24T12:12:47.847Z,31.00
2022-08-24T12:15:21.525Z,31.10
2022-08-24T12:17:58.385Z,31.10
2022-08-24T12:20:33.677Z,31.20
2022-08-24T12:23:07.748Z,31.20
2022-08-24T12:26:03.203Z,31.20
2022-08-24T12:28:42.596Z,31.30
2022-08-24T12:31:19.016Z,31.30
2022-08-24T12:33:52.319Z,31.30
2022-08-24T12:36:28.057Z,31.30
2022-08-24T12:39:06.223Z,31.30
2022-08-24T12:41:39.240Z,31.30
2022-08-24T12:44:12.856Z,31.30
2022-08-24T12:46:43.575Z,31.30
2022-08-24T12:49:21.264Z,31.40
2022-08-24T12:52:12.758Z,31.40
2022-08-24T12:55:00.807Z,31.50
2022-08-24T12:57:51.827Z,31.50
2022-08-24T13:00:24.526Z,31.60
2022-08-24T13:02:58.352Z,31.60
2022-08-24T13:05:40.568Z,31.60
2022-08-24T13:08:16.477Z,31.60
2022-08-24T13:10:53.870Z,31.60
2022-08-24T13:13:41.481Z,31.60
2022-08-24T13:16:10.191Z,31.60
2022-08-24T13:19:08.084Z,31.60
2022-08-24T13:21:54.444Z,31.70
2022-08-24T13:24:47.213Z,31.70
2022-08-24T13:28:01.350Z,31.70
2022-08-24T13:30:46.570Z,31.70
2022-08-24T13:33:20.680Z,31.70
2022-08-24T13:36:01.923Z,31.70
2022-08-24T13:39:05.457Z,31.80
2022-08-24T13:41:47.494Z,31.80
2022-08-24T13:44:25.661Z,31.80
2022-08-24T13:47:04.111Z,31.80
2022-08-24T13:49:51.809Z,31.80
2022-08-24T13:52:30.650Z,31.80
2022-08-24T13:55:16.717Z,31.90
2022-08-24T13:57:50.406Z,31.90
2022-08-24T14:00:43.923Z,31.90
2022-08-24T14:03:50.551Z,32.00
2022-08-24T14:06:37.034Z,32.00
2022-08-24T14:09:27.548Z,32.10
2022-08-24T14:12:15.176Z,32.00
2022-08-24T14:15:07.522Z,31.90
2022-08-24T14:17:55.587Z,31.80
2022-08-24T14:20:48.228Z,31.70
2022-08-24T14:23:31.210Z,31.60
2022-08-24T14:26:38.082Z,31.60
2022-08-24T14:29:36.782Z,31.60
2022-08-24T14:32:30.499Z,31.60
2022-08-24T14:35:06.585Z,31.60
2022-08-24T14:37:42.198Z,31.60
2022-08-24T14:40:21.665Z,31.60
2022-08-24T14:42:58.170Z,31.60
2022-08-24T14:45:42.698Z,31.60
2022-08-24T14:48:22.153Z,31.60
2022-08-24T14:50:58.148Z,31.50
2022-08-24T14:53:45.216Z,31.60
2022-08-24T14:56:24.879Z,31.60
2022-08-24T14:59:04.665Z,31.60
2022-08-24T15:01:45.726Z,31.60
2022-08-24T15:04:38.413Z,31.60
2022-08-24T15:07:32.434Z,31.60
2022-08-24T15:10:02.911Z,31.60
2022-08-24T15:12:37.920Z,31.60
2022-08-24T15:15:12.877Z,31.60
2022-08-24T15:17:55.831Z,31.60
2022-08-24T15:20:50.168Z,31.60
2022-08-24T15:23:25.937Z,31.50
2022-08-24T15:25:59.500Z,31.50
2022-08-24T15:28:31.664Z,31.50
2022-08-24T15:31:04.019Z,31.50
2022-08-24T15:33:34.135Z,31.40
2022-08-24T15:36:10.688Z,31.40
2022-08-24T15:38:40.228Z,31.40
2022-08-24T15:41:13.753Z,31.40
2022-08-24T15:43:47.966Z,31.40
2022-08-24T15:46:20.221Z,31.40
2022-08-24T15:48:53.995Z,31.40
2022-08-24T15:51:35.550Z,31.40
2022-08-24T15:54:21.579Z,31.30
2022-08-24T15:56:55.806Z,31.30
2022-08-24T15:59:29.172Z,31.30
2022-08-24T16:02:26.644Z,31.30
2022-08-24T16:05:10.314Z,31.30
2022-08-24T16:08:09.364Z,31.30
2022-08-24T16:10:41.856Z,31.30
2022-08-24T16:13:26.872Z,31.40
2022-08-24T16:16:00.226Z,31.40
2022-08-24T16:18:47.296Z,31.50
2022-08-24T16:21:22.772Z,31.50
2022-08-24T16:23:56.606Z,31.50
2022-08-24T16:26:27.181Z,31.50
2022-08-24T16:28:57.360Z,31.50
2022-08-24T16:31:51.290Z,31.60
2022-08-24T16:34:23.402Z,31.60
2022-08-24T16:36:52.918Z,31.60
2022-08-24T16:39:21.133Z,31.60
2022-08-24T16:41:50.050Z,31.70
2022-08-24T16:44:18.797Z,31.70
2022-08-24T16:46:48.942Z,31.80
2022-08-24T16:49:17.091Z,31.80
2022-08-24T16:51:45.573Z,31.90
2022-08-24T16:54:15.300Z,32.00
2022-08-24T16:56:43.693Z,32.10
2022-08-24T16:59:17.088Z,32.30
2022-08-24T17:01:45.304Z,32.40
2022-08-24T17:04:13.455Z,32.60
2022-08-24T17:06:42.007Z,32.80
2022-08-24T17:09:10.576Z,33.10
2022-08-24T17:11:40.540Z,33.40
2022-08-24T17:14:08.988Z,33.70
2022-08-24T17:16:38.799Z,34.10
2022-08-24T17:19:10.892Z,34.70
2022-08-24T17:21:40.952Z,35.30
2022-08-24T17:24:10.949Z,35.90
2022-08-24T17:26:48.252Z,36.50
2022-08-24T17:29:18.697Z,37.10
2022-08-24T17:31:49.714Z,37.60
2022-08-24T17:34:20.415Z,37.90
2022-08-24T17:36:49.750Z,38.20
2022-08-24T17:39:18.831Z,38.40
2022-08-24T17:41:48.554Z,38.50
2022-08-24T17:44:21.008Z,38.60
2022-08-24T17:46:51.453Z,38.40
2022-08-24T17:49:20.278Z,37.80
2022-08-24T17:51:49.675Z,36.90
2022-08-24T17:54:18.681Z,36.10
2022-08-24T17:56:50.790Z,35.50
2022-08-24T17:59:24.474Z,34.90
2022-08-24T18:02:02.346Z,34.40
2022-08-24T18:04:33.856Z,33.90
2022-08-24T18:07:04.595Z,33.50
2022-08-24T18:09:37.187Z,33.10
2022-08-24T18:12:09.565Z,32.80
2022-08-24T18:14:37.849Z,32.50
2022-08-24T18:17:10.106Z,32.30
2022-08-24T18:19:38.695Z,32.00
2022-08-24T18:22:08.090Z,31.80
2022-08-24T18:24:36.261Z,31.60
2022-08-24T18:27:12.021Z,31.40
2022-08-24T18:29:42.546Z,31.20
2022-08-24T18:32:12.729Z,31.10
2022-08-24T18:34:41.125Z,30.90
2022-08-24T18:37:09.566Z,30.80
2022-08-24T18:39:38.107Z,30.60
2022-08-24T18:42:09.935Z,30.50
2022-08-24T18:44:42.790Z,30.30
2022-08-24T18:47:11.311Z,30.20
2022-08-24T18:49:39.491Z,30.10
2022-08-24T18:52:10.240Z,29.90
2022-08-24T18:54:41.396Z,29.80
2022-08-24T18:57:10.851Z,29.60
2022-08-24T18:59:40.659Z,29.50
2022-08-24T19:02:30.552Z,29.40
2022-08-24T19:05:01.160Z,29.30
2022-08-24T19:07:32.713Z,29.20
2022-08-24T19:10:01.411Z,29.10
2022-08-24T19:12:33.538Z,29.00
2022-08-24T19:15:03.558Z,28.90
2022-08-24T19:17:31.707Z,28.80
2022-08-24T19:19:59.799Z,28.60
2022-08-24T19:22:28.737Z,28.50
2022-08-24T19:24:58.320Z,28.50
2022-08-24T19:27:26.473Z,28.40
2022-08-24T19:29:59.894Z,28.40
2022-08-24T19:32:30.406Z,28.30
2022-08-24T19:35:00.268Z,28.20
2022-08-24T19:37:28.385Z,28.10
2022-08-24T19:39:57.812Z,28.10
2022-08-24T19:42:28.001Z,28.00
2022-08-24T19:45:17.297Z,27.90
2022-08-24T19:47:45.773Z,27.90
2022-08-24T19:50:14.840Z,27.80
2022-08-24T19:52:49.785Z,27.70
2022-08-24T19:55:18.099Z,27.70
2022-08-24T19:57:50.953Z,27.60
2022-08-24T20:00:30.554Z,27.60
2022-08-24T20:02:59.766Z,27.50
2022-08-24T20:05:29.415Z,27.40
2022-08-24T20:07:59.021Z,27.40
2022-08-24T20:10:27.465Z,27.30
2022-08-24T20:12:55.724Z,27.30
2022-08-24T20:15:26.538Z,27.20
2022-08-24T20:17:57.796Z,27.20
2022-08-24T20:20:27.221Z,27.10
2022-08-24T20:22:55.989Z,27.10
2022-08-24T20:25:24.150Z,27.00
2022-08-24T20:28:02.152Z,27.00
2022-08-24T20:30:42.055Z,26.90
2022-08-24T20:33:15.385Z,26.90
2022-08-24T20:35:44.018Z,26.80
2022-08-24T20:38:15.409Z,26.80
2022-08-24T20:40:43.549Z,26.70
2022-08-24T20:43:12.828Z,26.70
2022-08-24T20:45:42.652Z,26.60
2022-08-24T20:48:13.067Z,26.60
2022-08-24T20:50:43.164Z,26.50
2022-08-24T20:53:11.798Z,26.50
2022-08-24T20:55:40.582Z,26.40
2022-08-24T20:58:17.418Z,26.40
2022-08-24T21:00:47.924Z,26.30
2022-08-24T21:03:18.615Z,26.30
2022-08-24T21:05:48.455Z,26.20
2022-08-24T21:08:17.401Z,26.20
2022-08-24T21:10:45.739Z,26.10
2022-08-24T21:13:14.127Z,26.10
2022-08-24T21:15:42.591Z,26.00
2022-08-24T21:18:12.415Z,26.00
2022-08-24T21:20:46.209Z,26.00
2022-08-24T21:23:30.702Z,25.90
2022-08-24T21:25:59.521Z,25.90
2022-08-24T21:28:27.867Z,25.80
2022-08-24T21:30:56.025Z,25.80
2022-08-24T21:33:42.806Z,25.70
2022-08-24T21:36:11.662Z,25.70
2022-08-24T21:38:39.935Z,25.70
2022-08-24T21:41:13.515Z,25.60
2022-08-24T21:43:41.598Z,25.50
2022-08-24T21:46:09.865Z,25.50
2022-08-24T21:48:40.087Z,25.50
2022-08-24T21:51:08.365Z,25.50
2022-08-24T21:53:37.134Z,25.40
2022-08-24T21:56:05.779Z,25.30
2022-08-24T21:58:33.932Z,25.30
2022-08-24T22:01:02.161Z,25.30
2022-08-24T22:03:31.599Z,25.20
2022-08-24T22:06:07.825Z,25.20
2022-08-24T22:08:36.479Z,25.20
2022-08-24T22:11:04.841Z,25.10
2022-08-24T22:13:34.048Z,25.10
2022-08-24T22:16:03.154Z,25.10
2022-08-24T22:18:31.706Z,25.00
2022-08-24T22:20:59.891Z,24.90
2022-08-24T22:23:29.555Z,24.90
2022-08-24T22:25:57.793Z,24.90
2022-08-24T22:28:25.857Z,24.80
2022-08-24T22:30:54.019Z,24.80
2022-08-24T22:33:22.644Z,24.70
2022-08-24T22:35:51.756Z,24.70
2022-08-24T22:38:20.520Z,24.60
2022-08-24T22:40:55.114Z,24.60
2022-08-24T22:43:25.440Z,24.60
2022-08-24T22:45:53.580Z,24.50
2022-08-24T22:48:21.741Z,24.50
2022-08-24T22:50:54.716Z,24.50
2022-08-24T22:53:23.580Z,24.40
2022-08-24T22:55:53.092Z,24.30
2022-08-24T22:58:21.316Z,24.30
2022-08-24T23:00:49.401Z,24.20
2022-08-24T23:03:17.530Z,24.20
2022-08-24T23:05:45.912Z,24.20
2022-08-24T23:08:13.998Z,24.10
2022-08-24T23:10:42.088Z,24.00
2022-08-24T23:13:11.562Z,24.00
2022-08-24T23:15:39.645Z,24.00
2022-08-24T23:18:28.797Z,23.90
2022-08-24T23:20:55.892Z,23.90
2022-08-24T23:23:24.323Z,23.90
2022-08-24T23:25:52.433Z,23.80
2022-08-24T23:28:21.855Z,23.80
2022-08-24T23:30:49.954Z,23.70
2022-08-24T23:33:18.036Z,23.70
2022-08-24T23:35:46.090Z,23.70
2022-08-24T23:38:14.140Z,23.60
2022-08-24T23:40:42.688Z,23.60
2022-08-24T23:43:10.993Z,23.60
2022-08-24T23:45:41.072Z,23.50
2022-08-24T23:48:09.452Z,23.50
2022-08-24T23:50:37.511Z,23.50
2022-08-24T23:53:05.594Z,23.40
2022-08-24T23:55:33.633Z,23.40
2022-08-24T23:58:01.740Z,23.40
